Impacts METAR Board
IDs:

KCVB - Castroville Muni, TX, US

Updated at: 0600 UTC 19 Aug 2019
Potential Impact None Slight Moderate High
Time 18/18Z 18/19Z 18/20Z 18/21Z 18/22Z 18/23Z 19/00Z 19/01Z 19/02Z 19/03Z 19/04Z 19/05Z 19/06Z
Temp92 97 100 100 101 102 100 97 92 89 86 84 82
Dewpt68 66 65 63 63 62 62 60 68 68 69 67 68
Altim29.92 29.90 29.87 29.85 29.83 29.82 29.82 29.83 29.85 29.89 29.93 29.95 29.96
VIS10 10 10 10 10 10 10 7 10 10 10 10 10
CIG36 -- -- -- -- -- -- -- -- -- -- -- --
CoverBKNSCTCLRCLRSCTCLRCLRCLRCLRCLRCLRCLRCLR
FltCatVFRVFRVFRVFRVFRVFRVFRVFRVFRVFRVFRVFRVFR
WX--------------------------
WDir140140140140110130120120140140140130140
WSpd6 6 7 11 6 8 8 6 12 12 9 8 9
WGst-- -- 15 16 -- -- -- -- 22 24 14 -- --
Raw hourly METARs
KCVB 181755Z AUTO 14006KT 10SM BKN036 34/20 A2992 RMK AO2 T03350198 10337 20252
KCVB 181855Z AUTO 14006KT 10SM SCT044 36/19 A2990 RMK AO2 T03590189
KCVB 181955Z AUTO 14007G15KT 10SM CLR 38/18 A2987 RMK AO2 T03760182
KCVB 182055Z AUTO 14011G16KT 10SM CLR 38/17 A2985 RMK AO2 T03800173
KCVB 182155Z AUTO 11006KT 10SM SCT070 39/17 A2983 RMK AO2 T03860170
KCVB 182255Z AUTO 13008KT 10SM CLR 39/17 A2982 RMK AO2 T03870165
KCVB 182355Z AUTO 12008KT 10SM CLR 38/16 A2982 RMK AO2 T03760164 10390 20328
KCVB 190055Z AUTO 12006KT 7SM CLR 36/16 A2983 RMK AO2 T03600155
KCVB 190155Z AUTO 14012G22KT 10SM CLR 33/20 A2985 RMK AO2 T03330202
KCVB 190255Z AUTO 14012G24KT 10SM CLR 32/20 A2989 RMK AO2 T03160200
KCVB 190355Z AUTO 14009G14KT 10SM CLR 30/20 A2993 RMK AO2 T03010203
KCVB 190455Z AUTO 13008KT 10SM CLR 29/20 A2995 RMK AO2 T02880195
KCVB 190555Z AUTO 14009KT 10SM CLR 28/20 A2996 RMK AO2 T02780202 10376 20278 403900248



Page loaded:  06:03 UTC  |   11:03 PM Pacific  |   12:03 AM Mountain  |   01:03 AM Central  |   02:03 AM Eastern

 

ADVISORIES

FORECASTS

FORECASTS

OBSERVATIONS

USER TOOLS

ABOUT US